sensor_id;sensor_type;location;lat;lon;timestamp;temperature;humidity
17178;DHT22;8704;52.006;4.374;2024-01-06T00:00:51;6.60;1.00
17178;DHT22;8704;52.006;4.374;2024-01-06T00:03:19;7.10;1.00
17178;DHT22;8704;52.006;4.374;2024-01-06T00:05:47;6.90;1.00
17178;DHT22;8704;52.006;4.374;2024-01-06T00:08:15;6.60;1.00
17178;DHT22;8704;52.006;4.374;2024-01-06T00:10:44;6.60;1.00
17178;DHT22;8704;52.006;4.374;2024-01-06T00:13:13;7.20;1.00
17178;DHT22;8704;52.006;4.374;2024-01-06T00:15:41;6.50;99.90
17178;DHT22;8704;52.006;4.374;2024-01-06T00:18:09;6.80;99.90
17178;DHT22;8704;52.006;4.374;2024-01-06T00:20:37;6.50;99.90
17178;DHT22;8704;52.006;4.374;2024-01-06T00:23:05;6.70;99.90
17178;DHT22;8704;52.006;4.374;2024-01-06T00:25:34;6.50;1.00
17178;DHT22;8704;52.006;4.374;2024-01-06T00:28:02;7.10;1.00
17178;DHT22;8704;52.006;4.374;2024-01-06T00:30:31;6.50;1.00
17178;DHT22;8704;52.006;4.374;2024-01-06T00:32:59;6.50;1.00
17178;DHT22;8704;52.006;4.374;2024-01-06T00:35:28;6.50;99.90
17178;DHT22;8704;52.006;4.374;2024-01-06T00:37:56;7.20;99.90
17178;DHT22;8704;52.006;4.374;2024-01-06T00:40:23;6.50;99.90
17178;DHT22;8704;52.006;4.374;2024-01-06T00:42:51;7.00;1.00
17178;DHT22;8704;52.006;4.374;2024-01-06T00:45:19;6.50;99.90
17178;DHT22;8704;52.006;4.374;2024-01-06T00:47:49;6.40;99.90
17178;DHT22;8704;52.006;4.374;2024-01-06T00:50:17;6.40;99.90
17178;DHT22;8704;52.006;4.374;2024-01-06T00:52:46;6.40;1.00
17178;DHT22;8704;52.006;4.374;2024-01-06T00:55:14;6.40;1.00
17178;DHT22;8704;52.006;4.374;2024-01-06T00:57:42;7.00;1.00
17178;DHT22;8704;52.006;4.374;2024-01-06T01:00:12;6.50;1.00
17178;DHT22;8704;52.006;4.374;2024-01-06T01:02:40;6.40;1.00
17178;DHT22;8704;52.006;4.374;2024-01-06T01:05:10;6.80;1.00
17178;DHT22;8704;52.006;4.374;2024-01-06T01:07:38;7.20;7.80
17178;DHT22;8704;52.006;4.374;2024-01-06T01:10:07;6.80;1.00
17178;DHT22;8704;52.006;4.374;2024-01-06T01:12:36;6.30;1.00
17178;DHT22;8704;52.006;4.374;2024-01-06T01:15:05;6.50;1.00
17178;DHT22;8704;52.006;4.374;2024-01-06T01:17:33;6.30;1.00
17178;DHT22;8704;52.006;4.374;2024-01-06T01:20:01;6.70;1.00
17178;DHT22;8704;52.006;4.374;2024-01-06T01:22:31;6.30;1.00
17178;DHT22;8704;52.006;4.374;2024-01-06T01:24:59;6.30;1.00
17178;DHT22;8704;52.006;4.374;2024-01-06T01:27:32;6.40;1.00
17178;DHT22;8704;52.006;4.374;2024-01-06T01:30:00;6.30;18.90
17178;DHT22;8704;52.006;4.374;2024-01-06T01:32:28;6.30;12.90
17178;DHT22;8704;52.006;4.374;2024-01-06T01:34:57;6.30;1.00
17178;DHT22;8704;52.006;4.374;2024-01-06T01:37:25;6.30;1.00
17178;DHT22;8704;52.006;4.374;2024-01-06T01:39:54;6.20;1.00
17178;DHT22;8704;52.006;4.374;2024-01-06T01:42:23;6.20;1.00
17178;DHT22;8704;52.006;4.374;2024-01-06T01:44:51;7.50;99.90
17178;DHT22;8704;52.006;4.374;2024-01-06T01:47:19;6.30;99.90
17178;DHT22;8704;52.006;4.374;2024-01-06T01:49:48;6.90;1.00
17178;DHT22;8704;52.006;4.374;2024-01-06T01:52:17;6.20;1.00
17178;DHT22;8704;52.006;4.374;2024-01-06T01:54:45;6.20;4.60
17178;DHT22;8704;52.006;4.374;2024-01-06T01:57:16;6.20;1.00
17178;DHT22;8704;52.006;4.374;2024-01-06T01:59:45;6.10;1.00
17178;DHT22;8704;52.006;4.374;2024-01-06T02:02:14;6.10;99.90
17178;DHT22;8704;52.006;4.374;2024-01-06T02:04:42;6.10;99.90
17178;DHT22;8704;52.006;4.374;2024-01-06T02:07:12;7.20;99.90
17178;DHT22;8704;52.006;4.374;2024-01-06T02:09:41;6.00;1.00
17178;DHT22;8704;52.006;4.374;2024-01-06T02:12:09;6.10;1.00
17178;DHT22;8704;52.006;4.374;2024-01-06T02:14:38;6.00;1.00
17178;DHT22;8704;52.006;4.374;2024-01-06T02:17:08;7.00;1.00
17178;DHT22;8704;52.006;4.374;2024-01-06T02:19:37;6.00;1.00
17178;DHT22;8704;52.006;4.374;2024-01-06T02:22:06;6.60;1.00
17178;DHT22;8704;52.006;4.374;2024-01-06T02:24:34;5.90;1.00
17178;DHT22;8704;52.006;4.374;2024-01-06T02:27:03;6.00;1.00
17178;DHT22;8704;52.006;4.374;2024-01-06T02:29:31;6.00;1.00
17178;DHT22;8704;52.006;4.374;2024-01-06T02:31:59;6.40;1.00
17178;DHT22;8704;52.006;4.374;2024-01-06T02:34:28;6.30;1.00
17178;DHT22;8704;52.006;4.374;2024-01-06T02:36:56;5.90;1.00
17178;DHT22;8704;52.006;4.374;2024-01-06T02:39:25;5.90;1.00
17178;DHT22;8704;52.006;4.374;2024-01-06T02:41:54;5.80;1.00
17178;DHT22;8704;52.006;4.374;2024-01-06T02:44:22;5.80;1.00
17178;DHT22;8704;52.006;4.374;2024-01-06T02:46:50;6.30;1.00
17178;DHT22;8704;52.006;4.374;2024-01-06T02:49:19;5.80;1.00
17178;DHT22;8704;52.006;4.374;2024-01-06T02:51:47;5.80;1.00
17178;DHT22;8704;52.006;4.374;2024-01-06T02:54:15;6.20;1.00
17178;DHT22;8704;52.006;4.374;2024-01-06T02:56:45;6.20;1.00
17178;DHT22;8704;52.006;4.374;2024-01-06T02:59:13;6.00;1.00
17178;DHT22;8704;52.006;4.374;2024-01-06T03:01:41;6.10;99.90
17178;DHT22;8704;52.006;4.374;2024-01-06T03:04:09;6.00;99.90
17178;DHT22;8704;52.006;4.374;2024-01-06T03:06:37;6.20;99.90
17178;DHT22;8704;52.006;4.374;2024-01-06T03:09:06;5.80;99.90
17178;DHT22;8704;52.006;4.374;2024-01-06T03:11:34;5.70;99.90
17178;DHT22;8704;52.006;4.374;2024-01-06T03:14:04;5.70;99.90
17178;DHT22;8704;52.006;4.374;2024-01-06T03:16:32;5.80;99.90
17178;DHT22;8704;52.006;4.374;2024-01-06T03:19:01;5.80;99.90
17178;DHT22;8704;52.006;4.374;2024-01-06T03:21:29;5.70;99.90
17178;DHT22;8704;52.006;4.374;2024-01-06T03:23:58;5.70;99.90
17178;DHT22;8704;52.006;4.374;2024-01-06T03:26:26;6.20;99.90
17178;DHT22;8704;52.006;4.374;2024-01-06T03:28:54;6.10;99.90
17178;DHT22;8704;52.006;4.374;2024-01-06T03:31:24;5.70;99.90
17178;DHT22;8704;52.006;4.374;2024-01-06T03:33:52;6.80;99.90
17178;DHT22;8704;52.006;4.374;2024-01-06T03:36:23;5.70;1.00
17178;DHT22;8704;52.006;4.374;2024-01-06T03:38:51;6.30;1.00
17178;DHT22;8704;52.006;4.374;2024-01-06T03:41:19;7.00;99.90
17178;DHT22;8704;52.006;4.374;2024-01-06T03:43:47;5.70;99.90
17178;DHT22;8704;52.006;4.374;2024-01-06T03:46:15;6.30;99.90
17178;DHT22;8704;52.006;4.374;2024-01-06T03:48:45;6.30;1.00
17178;DHT22;8704;52.006;4.374;2024-01-06T03:51:13;5.60;99.90
17178;DHT22;8704;52.006;4.374;2024-01-06T03:53:42;5.60;99.90
17178;DHT22;8704;52.006;4.374;2024-01-06T03:56:13;5.60;99.90
17178;DHT22;8704;52.006;4.374;2024-01-06T03:58:41;5.60;99.90
17178;DHT22;8704;52.006;4.374;2024-01-06T04:01:09;4.60;1.00
17178;DHT22;8704;52.006;4.374;2024-01-06T04:03:38;6.10;1.00
17178;DHT22;8704;52.006;4.374;2024-01-06T04:06:09;5.60;99.90
17178;DHT22;8704;52.006;4.374;2024-01-06T04:08:39;6.00;1.00
17178;DHT22;8704;52.006;4.374;2024-01-06T04:11:08;5.60;1.00
17178;DHT22;8704;52.006;4.374;2024-01-06T04:13:36;5.50;1.00
17178;DHT22;8704;52.006;4.374;2024-01-06T04:16:05;5.50;1.00
17178;DHT22;8704;52.006;4.374;2024-01-06T04:18:33;5.50;1.00
17178;DHT22;8704;52.006;4.374;2024-01-06T04:21:01;6.30;1.00
17178;DHT22;8704;52.006;4.374;2024-01-06T04:23:31;5.50;1.00
17178;DHT22;8704;52.006;4.374;2024-01-06T04:25:59;5.40;99.90
17178;DHT22;8704;52.006;4.374;2024-01-06T04:28:28;6.00;99.90
17178;DHT22;8704;52.006;4.374;2024-01-06T04:30:56;5.50;1.00
17178;DHT22;8704;52.006;4.374;2024-01-06T04:33:24;5.40;1.00
17178;DHT22;8704;52.006;4.374;2024-01-06T04:35:53;5.50;1.00
17178;DHT22;8704;52.006;4.374;2024-01-06T04:38:21;5.90;1.00
17178;DHT22;8704;52.006;4.374;2024-01-06T04:40:50;5.40;1.00
17178;DHT22;8704;52.006;4.374;2024-01-06T04:43:19;6.10;1.00
17178;DHT22;8704;52.006;4.374;2024-01-06T04:45:47;5.50;1.00
17178;DHT22;8704;52.006;4.374;2024-01-06T04:48:17;6.20;1.00
17178;DHT22;8704;52.006;4.374;2024-01-06T04:50:45;6.20;1.00
17178;DHT22;8704;52.006;4.374;2024-01-06T04:53:13;5.60;1.00
17178;DHT22;8704;52.006;4.374;2024-01-06T04:55:41;5.70;1.00
17178;DHT22;8704;52.006;4.374;2024-01-06T04:58:11;5.30;1.00
17178;DHT22;8704;52.006;4.374;2024-01-06T05:00:39;5.30;1.00
17178;DHT22;8704;52.006;4.374;2024-01-06T05:03:07;5.30;1.00
17178;DHT22;8704;52.006;4.374;2024-01-06T05:05:35;5.80;1.00
17178;DHT22;8704;52.006;4.374;2024-01-06T05:08:04;5.30;1.00
17178;DHT22;8704;52.006;4.374;2024-01-06T05:10:32;5.30;1.00
17178;DHT22;8704;52.006;4.374;2024-01-06T05:13:00;5.30;1.00
17178;DHT22;8704;52.006;4.374;2024-01-06T05:15:30;5.70;1.00
17178;DHT22;8704;52.006;4.374;2024-01-06T05:17:58;5.50;76.60
17178;DHT22;8704;52.006;4.374;2024-01-06T05:20:26;5.30;99.90
17178;DHT22;8704;52.006;4.374;2024-01-06T05:22:55;5.20;99.90
17178;DHT22;8704;52.006;4.374;2024-01-06T05:25:23;5.40;99.90
17178;DHT22;8704;52.006;4.374;2024-01-06T05:27:51;5.50;99.90
17178;DHT22;8704;52.006;4.374;2024-01-06T05:30:19;5.20;99.90
17178;DHT22;8704;52.006;4.374;2024-01-06T05:32:49;5.20;99.90
17178;DHT22;8704;52.006;4.374;2024-01-06T05:35:17;5.80;99.90
17178;DHT22;8704;52.006;4.374;2024-01-06T05:37:45;5.20;1.00
17178;DHT22;8704;52.006;4.374;2024-01-06T05:40:14;5.90;1.00
17178;DHT22;8704;52.006;4.374;2024-01-06T05:42:43;5.60;1.00
17178;DHT22;8704;52.006;4.374;2024-01-06T05:45:11;5.10;1.00
17178;DHT22;8704;52.006;4.374;2024-01-06T05:47:40;5.10;1.00
17178;DHT22;8704;52.006;4.374;2024-01-06T05:50:10;5.10;1.00
17178;DHT22;8704;52.006;4.374;2024-01-06T05:52:38;5.70;1.00
17178;DHT22;8704;52.006;4.374;2024-01-06T05:55:07;5.30;99.90
17178;DHT22;8704;52.006;4.374;2024-01-06T05:57:36;5.10;99.90
17178;DHT22;8704;52.006;4.374;2024-01-06T06:00:08;5.10;99.90
17178;DHT22;8704;52.006;4.374;2024-01-06T06:02:37;5.00;99.90
17178;DHT22;8704;52.006;4.374;2024-01-06T06:05:07;5.60;95.20
17178;DHT22;8704;52.006;4.374;2024-01-06T06:07:36;5.10;99.90
17178;DHT22;8704;52.006;4.374;2024-01-06T06:10:07;5.10;99.90
17178;DHT22;8704;52.006;4.374;2024-01-06T06:12:37;5.00;99.90
17178;DHT22;8704;52.006;4.374;2024-01-06T06:15:06;5.20;55.50
17178;DHT22;8704;52.006;4.374;2024-01-06T06:17:34;5.00;1.20
17178;DHT22;8704;52.006;4.374;2024-01-06T06:20:02;5.00;14.30
17178;DHT22;8704;52.006;4.374;2024-01-06T06:22:33;5.00;1.50
17178;DHT22;8704;52.006;4.374;2024-01-06T06:25:03;5.00;15.30
17178;DHT22;8704;52.006;4.374;2024-01-06T06:27:31;5.00;1.00
17178;DHT22;8704;52.006;4.374;2024-01-06T06:29:59;5.40;1.00
17178;DHT22;8704;52.006;4.374;2024-01-06T06:32:27;5.80;1.00
17178;DHT22;8704;52.006;4.374;2024-01-06T06:34:56;4.90;1.00
17178;DHT22;8704;52.006;4.374;2024-01-06T06:37:24;6.00;1.00
17178;DHT22;8704;52.006;4.374;2024-01-06T06:39:52;5.10;1.00
17178;DHT22;8704;52.006;4.374;2024-01-06T06:42:22;5.60;1.00
17178;DHT22;8704;52.006;4.374;2024-01-06T06:44:50;5.50;1.00
17178;DHT22;8704;52.006;4.374;2024-01-06T06:47:18;5.10;21.40
17178;DHT22;8704;52.006;4.374;2024-01-06T06:49:46;4.90;1.00
17178;DHT22;8704;52.006;4.374;2024-01-06T06:52:14;5.70;1.00
17178;DHT22;8704;52.006;4.374;2024-01-06T06:54:42;4.90;1.00
17178;DHT22;8704;52.006;4.374;2024-01-06T06:57:11;5.70;1.00
17178;DHT22;8704;52.006;4.374;2024-01-06T06:59:40;4.90;1.00
17178;DHT22;8704;52.006;4.374;2024-01-06T07:02:08;6.00;1.00
17178;DHT22;8704;52.006;4.374;2024-01-06T07:04:37;5.80;1.00
17178;DHT22;8704;52.006;4.374;2024-01-06T07:07:05;5.50;1.00
17178;DHT22;8704;52.006;4.374;2024-01-06T07:09:33;4.90;1.00
17178;DHT22;8704;52.006;4.374;2024-01-06T07:12:02;4.90;99.90
17178;DHT22;8704;52.006;4.374;2024-01-06T07:14:30;4.90;99.90
17178;DHT22;8704;52.006;4.374;2024-01-06T07:17:00;5.50;1.00
17178;DHT22;8704;52.006;4.374;2024-01-06T07:19:28;4.90;1.00
17178;DHT22;8704;52.006;4.374;2024-01-06T07:21:56;5.80;99.90
17178;DHT22;8704;52.006;4.374;2024-01-06T07:24:24;5.90;99.90
17178;DHT22;8704;52.006;4.374;2024-01-06T07:26:53;4.90;99.90
17178;DHT22;8704;52.006;4.374;2024-01-06T07:29:21;4.90;99.90
17178;DHT22;8704;52.006;4.374;2024-01-06T07:31:49;4.90;99.90
17178;DHT22;8704;52.006;4.374;2024-01-06T07:34:19;4.90;99.90
17178;DHT22;8704;52.006;4.374;2024-01-06T07:36:47;5.30;99.90
17178;DHT22;8704;52.006;4.374;2024-01-06T07:39:16;6.00;99.90
17178;DHT22;8704;52.006;4.374;2024-01-06T07:41:44;5.10;99.90
17178;DHT22;8704;52.006;4.374;2024-01-06T07:44:13;4.90;99.90
17178;DHT22;8704;52.006;4.374;2024-01-06T07:46:42;5.60;99.90
17178;DHT22;8704;52.006;4.374;2024-01-06T07:49:11;4.80;28.40
17178;DHT22;8704;52.006;4.374;2024-01-06T07:51:40;4.90;1.00
17178;DHT22;8704;52.006;4.374;2024-01-06T07:54:09;4.90;99.90
17178;DHT22;8704;52.006;4.374;2024-01-06T07:56:38;4.90;99.90
17178;DHT22;8704;52.006;4.374;2024-01-06T07:59:06;3.50;99.90
17178;DHT22;8704;52.006;4.374;2024-01-06T08:01:35;4.80;1.00
17178;DHT22;8704;52.006;4.374;2024-01-06T08:04:03;5.30;1.00
17178;DHT22;8704;52.006;4.374;2024-01-06T08:06:31;4.10;1.00
17178;DHT22;8704;52.006;4.374;2024-01-06T08:09:01;5.90;1.00
17178;DHT22;8704;52.006;4.374;2024-01-06T08:11:30;5.90;1.00
17178;DHT22;8704;52.006;4.374;2024-01-06T08:13:58;4.80;1.00
17178;DHT22;8704;52.006;4.374;2024-01-06T08:16:26;5.30;1.00
17178;DHT22;8704;52.006;4.374;2024-01-06T08:18:54;5.70;1.00
17178;DHT22;8704;52.006;4.374;2024-01-06T08:21:23;5.80;1.00
17178;DHT22;8704;52.006;4.374;2024-01-06T08:23:51;4.80;1.00
17178;DHT22;8704;52.006;4.374;2024-01-06T08:26:21;4.80;1.00
17178;DHT22;8704;52.006;4.374;2024-01-06T08:28:49;5.60;1.00
17178;DHT22;8704;52.006;4.374;2024-01-06T08:31:17;4.80;1.00
17178;DHT22;8704;52.006;4.374;2024-01-06T08:33:45;4.80;1.00
17178;DHT22;8704;52.006;4.374;2024-01-06T08:36:14;6.20;17.30
17178;DHT22;8704;52.006;4.374;2024-01-06T08:38:42;5.40;13.40
17178;DHT22;8704;52.006;4.374;2024-01-06T08:41:10;5.20;25.20
17178;DHT22;8704;52.006;4.374;2024-01-06T08:43:40;4.80;2.20
17178;DHT22;8704;52.006;4.374;2024-01-06T08:46:08;4.90;1.00
17178;DHT22;8704;52.006;4.374;2024-01-06T08:48:36;4.80;1.00
17178;DHT22;8704;52.006;4.374;2024-01-06T08:51:04;4.80;1.00
17178;DHT22;8704;52.006;4.374;2024-01-06T08:53:33;5.10;1.00
17178;DHT22;8704;52.006;4.374;2024-01-06T08:56:01;5.60;1.00
17178;DHT22;8704;52.006;4.374;2024-01-06T08:58:29;4.80;1.00
17178;DHT22;8704;52.006;4.374;2024-01-06T09:00:59;4.90;1.00
17178;DHT22;8704;52.006;4.374;2024-01-06T09:03:30;4.80;1.00
17178;DHT22;8704;52.006;4.374;2024-01-06T09:05:58;5.00;1.00
17178;DHT22;8704;52.006;4.374;2024-01-06T09:08:27;5.60;1.00
17178;DHT22;8704;52.006;4.374;2024-01-06T09:10:55;4.80;1.00
17178;DHT22;8704;52.006;4.374;2024-01-06T09:13:24;5.80;1.00
17178;DHT22;8704;52.006;4.374;2024-01-06T09:15:52;4.80;1.00
17178;DHT22;8704;52.006;4.374;2024-01-06T09:18:22;4.80;1.00
17178;DHT22;8704;52.006;4.374;2024-01-06T09:20:51;5.20;1.00
17178;DHT22;8704;52.006;4.374;2024-01-06T09:23:20;5.60;1.00
17178;DHT22;8704;52.006;4.374;2024-01-06T09:25:51;5.60;1.00
17178;DHT22;8704;52.006;4.374;2024-01-06T09:28:19;5.50;1.00
17178;DHT22;8704;52.006;4.374;2024-01-06T09:30:48;5.30;1.00
17178;DHT22;8704;52.006;4.374;2024-01-06T09:33:17;6.10;1.00
17178;DHT22;8704;52.006;4.374;2024-01-06T09:35:47;5.70;1.00
17178;DHT22;8704;52.006;4.374;2024-01-06T09:38:15;5.70;1.00
17178;DHT22;8704;52.006;4.374;2024-01-06T09:40:44;5.70;1.00
17178;DHT22;8704;52.006;4.374;2024-01-06T09:43:13;5.00;1.00
17178;DHT22;8704;52.006;4.374;2024-01-06T09:45:41;5.10;1.00
17178;DHT22;8704;52.006;4.374;2024-01-06T09:48:12;5.00;1.00
17178;DHT22;8704;52.006;4.374;2024-01-06T09:50:42;5.10;1.00
17178;DHT22;8704;52.006;4.374;2024-01-06T09:53:13;5.10;1.00
17178;DHT22;8704;52.006;4.374;2024-01-06T09:55:42;5.10;99.90
17178;DHT22;8704;52.006;4.374;2024-01-06T09:58:11;5.10;99.90
17178;DHT22;8704;52.006;4.374;2024-01-06T10:00:39;5.60;99.90
17178;DHT22;8704;52.006;4.374;2024-01-06T10:03:07;5.50;99.90
17178;DHT22;8704;52.006;4.374;2024-01-06T10:05:36;6.30;99.90
17178;DHT22;8704;52.006;4.374;2024-01-06T10:08:05;5.20;24.30
17178;DHT22;8704;52.006;4.374;2024-01-06T10:10:35;5.10;1.00
17178;DHT22;8704;52.006;4.374;2024-01-06T10:13:03;5.20;99.90
17178;DHT22;8704;52.006;4.374;2024-01-06T10:15:32;5.20;82.90
17178;DHT22;8704;52.006;4.374;2024-01-06T10:18:03;6.30;1.00
17178;DHT22;8704;52.006;4.374;2024-01-06T10:20:32;5.20;1.00
17178;DHT22;8704;52.006;4.374;2024-01-06T10:23:04;5.60;1.00
17178;DHT22;8704;52.006;4.374;2024-01-06T10:25:34;5.10;1.00
17178;DHT22;8704;52.006;4.374;2024-01-06T10:28:02;5.10;1.00
17178;DHT22;8704;52.006;4.374;2024-01-06T10:30:31;5.10;1.00
17178;DHT22;8704;52.006;4.374;2024-01-06T10:32:59;5.70;1.00
17178;DHT22;8704;52.006;4.374;2024-01-06T10:35:27;5.10;1.00
17178;DHT22;8704;52.006;4.374;2024-01-06T10:37:56;5.10;1.00
17178;DHT22;8704;52.006;4.374;2024-01-06T10:40:25;5.50;62.00
17178;DHT22;8704;52.006;4.374;2024-01-06T10:42:55;5.10;99.90
17178;DHT22;8704;52.006;4.374;2024-01-06T10:45:24;6.00;99.90
17178;DHT22;8704;52.006;4.374;2024-01-06T10:47:53;6.50;36.30
17178;DHT22;8704;52.006;4.374;2024-01-06T10:50:23;5.10;1.00
17178;DHT22;8704;52.006;4.374;2024-01-06T10:52:52;5.00;1.00
17178;DHT22;8704;52.006;4.374;2024-01-06T10:55:21;5.00;1.00
17178;DHT22;8704;52.006;4.374;2024-01-06T10:57:51;5.00;1.00
17178;DHT22;8704;52.006;4.374;2024-01-06T11:00:22;5.10;1.00
17178;DHT22;8704;52.006;4.374;2024-01-06T11:02:51;5.10;2.00
17178;DHT22;8704;52.006;4.374;2024-01-06T11:05:21;5.00;1.00
17178;DHT22;8704;52.006;4.374;2024-01-06T11:07:50;5.80;1.00
17178;DHT22;8704;52.006;4.374;2024-01-06T11:10:21;5.20;19.50
17178;DHT22;8704;52.006;4.374;2024-01-06T11:13:08;5.10;1.00
17178;DHT22;8704;52.006;4.374;2024-01-06T11:15:43;5.10;1.00
17178;DHT22;8704;52.006;4.374;2024-01-06T11:18:31;5.10;1.00
17178;DHT22;8704;52.006;4.374;2024-01-06T11:21:15;5.10;1.00
17178;DHT22;8704;52.006;4.374;2024-01-06T11:23:45;5.20;1.00
17178;DHT22;8704;52.006;4.374;2024-01-06T11:26:14;5.60;1.00
17178;DHT22;8704;52.006;4.374;2024-01-06T11:28:45;5.20;1.00
17178;DHT22;8704;52.006;4.374;2024-01-06T11:31:15;5.80;1.00
17178;DHT22;8704;52.006;4.374;2024-01-06T11:33:43;5.30;1.00
17178;DHT22;8704;52.006;4.374;2024-01-06T11:36:14;5.30;1.00
17178;DHT22;8704;52.006;4.374;2024-01-06T11:38:43;5.30;1.00
17178;DHT22;8704;52.006;4.374;2024-01-06T11:41:48;5.30;1.00
17178;DHT22;8704;52.006;4.374;2024-01-06T11:44:18;5.70;1.00
17178;DHT22;8704;52.006;4.374;2024-01-06T11:46:49;5.30;1.00
17178;DHT22;8704;52.006;4.374;2024-01-06T11:49:20;5.40;1.00
17178;DHT22;8704;52.006;4.374;2024-01-06T11:51:49;5.40;1.00
17178;DHT22;8704;52.006;4.374;2024-01-06T11:54:17;6.30;1.00
17178;DHT22;8704;52.006;4.374;2024-01-06T11:56:48;5.40;1.00
17178;DHT22;8704;52.006;4.374;2024-01-06T11:59:16;5.40;1.00
17178;DHT22;8704;52.006;4.374;2024-01-06T12:01:45;5.40;99.90
17178;DHT22;8704;52.006;4.374;2024-01-06T12:04:15;5.60;99.90
17178;DHT22;8704;52.006;4.374;2024-01-06T12:06:43;6.20;99.90
17178;DHT22;8704;52.006;4.374;2024-01-06T12:09:12;5.40;99.90
17178;DHT22;8704;52.006;4.374;2024-01-06T12:11:42;5.60;99.90
17178;DHT22;8704;52.006;4.374;2024-01-06T12:14:12;6.20;99.90
17178;DHT22;8704;52.006;4.374;2024-01-06T12:16:40;6.40;99.90
17178;DHT22;8704;52.006;4.374;2024-01-06T12:19:09;6.40;99.90
17178;DHT22;8704;52.006;4.374;2024-01-06T12:21:40;5.40;99.90
17178;DHT22;8704;52.006;4.374;2024-01-06T12:24:16;5.40;99.90
17178;DHT22;8704;52.006;4.374;2024-01-06T12:26:47;5.50;99.90
17178;DHT22;8704;52.006;4.374;2024-01-06T12:29:18;5.40;99.90
17178;DHT22;8704;52.006;4.374;2024-01-06T12:31:46;5.90;99.90
17178;DHT22;8704;52.006;4.374;2024-01-06T12:34:15;5.40;99.90
17178;DHT22;8704;52.006;4.374;2024-01-06T12:36:44;5.50;99.90
17178;DHT22;8704;52.006;4.374;2024-01-06T12:39:14;6.30;99.90
17178;DHT22;8704;52.006;4.374;2024-01-06T12:41:43;6.00;99.90
17178;DHT22;8704;52.006;4.374;2024-01-06T12:44:11;6.40;95.40
17178;DHT22;8704;52.006;4.374;2024-01-06T12:46:40;5.90;33.90
17178;DHT22;8704;52.006;4.374;2024-01-06T12:49:08;5.50;17.10
17178;DHT22;8704;52.006;4.374;2024-01-06T12:51:37;5.50;31.10
17178;DHT22;8704;52.006;4.374;2024-01-06T12:54:06;6.50;1.00
17178;DHT22;8704;52.006;4.374;2024-01-06T12:56:35;5.60;1.00
17178;DHT22;8704;52.006;4.374;2024-01-06T12:59:04;5.90;1.00
17178;DHT22;8704;52.006;4.374;2024-01-06T13:01:33;5.60;1.00
17178;DHT22;8704;52.006;4.374;2024-01-06T13:04:01;5.60;1.00
17178;DHT22;8704;52.006;4.374;2024-01-06T13:06:29;5.70;1.00
17178;DHT22;8704;52.006;4.374;2024-01-06T13:08:58;7.00;1.00
17178;DHT22;8704;52.006;4.374;2024-01-06T13:11:30;6.60;1.00
17178;DHT22;8704;52.006;4.374;2024-01-06T13:13:58;5.90;1.00
17178;DHT22;8704;52.006;4.374;2024-01-06T13:16:26;6.20;1.00
17178;DHT22;8704;52.006;4.374;2024-01-06T13:18:55;5.90;1.00
17178;DHT22;8704;52.006;4.374;2024-01-06T13:21:23;5.60;1.00
17178;DHT22;8704;52.006;4.374;2024-01-06T13:23:51;5.60;1.00
17178;DHT22;8704;52.006;4.374;2024-01-06T13:26:19;6.10;1.00
17178;DHT22;8704;52.006;4.374;2024-01-06T13:28:49;6.20;1.00
17178;DHT22;8704;52.006;4.374;2024-01-06T13:31:17;5.70;1.00
17178;DHT22;8704;52.006;4.374;2024-01-06T13:33:46;6.80;1.00
17178;DHT22;8704;52.006;4.374;2024-01-06T13:36:14;6.70;1.00
17178;DHT22;8704;52.006;4.374;2024-01-06T13:38:44;5.70;1.00
17178;DHT22;8704;52.006;4.374;2024-01-06T13:41:13;5.70;1.00
17178;DHT22;8704;52.006;4.374;2024-01-06T13:43:41;5.70;1.00
17178;DHT22;8704;52.006;4.374;2024-01-06T13:46:10;5.70;1.00
17178;DHT22;8704;52.006;4.374;2024-01-06T13:48:40;6.20;1.00
17178;DHT22;8704;52.006;4.374;2024-01-06T13:51:09;6.30;1.00
17178;DHT22;8704;52.006;4.374;2024-01-06T13:53:37;6.70;1.00
17178;DHT22;8704;52.006;4.374;2024-01-06T13:56:06;6.50;1.00
17178;DHT22;8704;52.006;4.374;2024-01-06T13:58:34;6.90;1.00
17178;DHT22;8704;52.006;4.374;2024-01-06T14:01:05;5.90;1.00
17178;DHT22;8704;52.006;4.374;2024-01-06T14:03:36;5.80;1.00
17178;DHT22;8704;52.006;4.374;2024-01-06T14:06:05;6.20;1.00
17178;DHT22;8704;52.006;4.374;2024-01-06T14:08:34;5.80;1.00
17178;DHT22;8704;52.006;4.374;2024-01-06T14:11:02;5.80;1.00
17178;DHT22;8704;52.006;4.374;2024-01-06T14:13:32;5.80;1.00
17178;DHT22;8704;52.006;4.374;2024-01-06T14:16:00;6.20;1.00
17178;DHT22;8704;52.006;4.374;2024-01-06T14:18:29;6.80;1.00
17178;DHT22;8704;52.006;4.374;2024-01-06T14:20:59;6.50;1.00
17178;DHT22;8704;52.006;4.374;2024-01-06T14:23:27;5.80;1.00
17178;DHT22;8704;52.006;4.374;2024-01-06T14:25:56;5.80;1.00
17178;DHT22;8704;52.006;4.374;2024-01-06T14:28:24;5.70;1.00
17178;DHT22;8704;52.006;4.374;2024-01-06T14:30:52;6.70;1.00
17178;DHT22;8704;52.006;4.374;2024-01-06T14:33:21;6.60;1.00
17178;DHT22;8704;52.006;4.374;2024-01-06T14:35:50;5.70;1.00
17178;DHT22;8704;52.006;4.374;2024-01-06T14:38:19;6.10;1.00
17178;DHT22;8704;52.006;4.374;2024-01-06T14:40:48;5.70;1.00
17178;DHT22;8704;52.006;4.374;2024-01-06T14:43:16;5.60;1.00
17178;DHT22;8704;52.006;4.374;2024-01-06T14:45:44;5.60;1.00
17178;DHT22;8704;52.006;4.374;2024-01-06T14:48:12;6.60;1.00
17178;DHT22;8704;52.006;4.374;2024-01-06T14:50:40;5.60;1.00
17178;DHT22;8704;52.006;4.374;2024-01-06T14:53:08;5.60;1.00
17178;DHT22;8704;52.006;4.374;2024-01-06T14:55:39;5.60;1.00
17178;DHT22;8704;52.006;4.374;2024-01-06T14:58:07;6.50;1.00
17178;DHT22;8704;52.006;4.374;2024-01-06T15:00:36;6.50;1.00
17178;DHT22;8704;52.006;4.374;2024-01-06T15:03:04;5.50;1.00
17178;DHT22;8704;52.006;4.374;2024-01-06T15:05:33;5.50;1.00
17178;DHT22;8704;52.006;4.374;2024-01-06T15:08:01;5.40;1.00
17178;DHT22;8704;52.006;4.374;2024-01-06T15:10:31;5.80;1.00
17178;DHT22;8704;52.006;4.374;2024-01-06T15:13:01;5.40;1.00
17178;DHT22;8704;52.006;4.374;2024-01-06T15:15:31;5.30;1.00
17178;DHT22;8704;52.006;4.374;2024-01-06T15:17:59;5.70;1.00
17178;DHT22;8704;52.006;4.374;2024-01-06T15:20:27;5.30;1.00
17178;DHT22;8704;52.006;4.374;2024-01-06T15:22:56;5.60;1.00
17178;DHT22;8704;52.006;4.374;2024-01-06T15:25:24;5.20;1.00
17178;DHT22;8704;52.006;4.374;2024-01-06T15:27:52;5.20;1.00
17178;DHT22;8704;52.006;4.374;2024-01-06T15:30:22;5.10;1.00
17178;DHT22;8704;52.006;4.374;2024-01-06T15:32:50;5.10;1.00
17178;DHT22;8704;52.006;4.374;2024-01-06T15:35:18;5.10;1.00
17178;DHT22;8704;52.006;4.374;2024-01-06T15:37:50;5.40;1.00
17178;DHT22;8704;52.006;4.374;2024-01-06T15:40:18;5.00;1.00
17178;DHT22;8704;52.006;4.374;2024-01-06T15:42:46;5.00;1.00
17178;DHT22;8704;52.006;4.374;2024-01-06T15:45:15;5.00;1.00
17178;DHT22;8704;52.006;4.374;2024-01-06T15:47:44;5.00;1.00
17178;DHT22;8704;52.006;4.374;2024-01-06T15:50:13;5.00;1.00
17178;DHT22;8704;52.006;4.374;2024-01-06T15:52:41;5.00;1.00
17178;DHT22;8704;52.006;4.374;2024-01-06T15:55:12;5.00;1.00
17178;DHT22;8704;52.006;4.374;2024-01-06T15:57:40;5.00;1.00
17178;DHT22;8704;52.006;4.374;2024-01-06T16:00:11;5.00;1.00
17178;DHT22;8704;52.006;4.374;2024-01-06T16:02:39;4.90;1.00
17178;DHT22;8704;52.006;4.374;2024-01-06T16:05:09;4.90;1.00
17178;DHT22;8704;52.006;4.374;2024-01-06T16:07:37;5.50;1.00
17178;DHT22;8704;52.006;4.374;2024-01-06T16:10:06;5.40;1.00
17178;DHT22;8704;52.006;4.374;2024-01-06T16:12:34;4.80;1.00
17178;DHT22;8704;52.006;4.374;2024-01-06T16:15:07;4.80;1.00
17178;DHT22;8704;52.006;4.374;2024-01-06T16:17:35;4.80;1.00
17178;DHT22;8704;52.006;4.374;2024-01-06T16:20:04;4.80;1.00
17178;DHT22;8704;52.006;4.374;2024-01-06T16:22:35;4.60;1.00